createdAt,value
2022-12-14T00:00:02.568Z,-5.9
2022-12-14T00:15:03.155Z,-6.2
2022-12-14T00:30:02.469Z,-6.3
2022-12-14T00:45:03.145Z,-6.3
2022-12-14T01:00:02.347Z,-6.2
2022-12-14T01:15:02.781Z,-6.5
2022-12-14T01:30:02.226Z,-6.6
2022-12-14T01:45:02.664Z,-6.6
2022-12-14T02:00:07.092Z,-6.7
2022-12-14T02:15:03.515Z,-6.8
2022-12-14T02:30:03.190Z,-6.7
2022-12-14T02:45:02.401Z,-6.6
2022-12-14T03:00:02.849Z,-6.7
2022-12-14T03:15:02.277Z,-6.9
2022-12-14T03:30:02.728Z,-6.7
2022-12-14T03:45:03.223Z,-6.7
2022-12-14T04:00:02.605Z,-6.6
2022-12-14T04:15:03.212Z,-6.6
2022-12-14T04:30:02.485Z,-6.8
2022-12-14T04:45:02.927Z,-6.8
2022-12-14T05:00:02.339Z,-6.6
2022-12-14T05:15:02.796Z,-6.4
2022-12-14T05:30:02.236Z,-6.2
2022-12-14T05:45:02.660Z,-6.3
2022-12-14T06:00:03.221Z,-6.3
2022-12-14T06:15:02.536Z,-6.2
2022-12-14T06:30:02.954Z,-6.2
2022-12-14T06:45:02.383Z,-6.1
2022-12-14T07:00:02.833Z,-6.1
2022-12-14T07:15:03.270Z,-6.2
2022-12-14T07:30:02.713Z,-6.3
2022-12-14T07:45:03.262Z,-6.5
2022-12-14T08:00:02.569Z,-6.9
2022-12-14T08:15:03.302Z,-7.0
2022-12-14T08:30:02.457Z,-6.9
2022-12-14T08:45:02.925Z,-6.7
2022-12-14T09:00:02.926Z,-6.7
2022-12-14T09:15:02.795Z,-6.7
2022-12-14T09:30:02.295Z,-6.3
2022-12-14T09:45:02.681Z,-5.7
2022-12-14T10:00:03.306Z,-4.8
2022-12-14T10:15:02.568Z,-4.2
2022-12-14T10:30:02.996Z,-3.8
2022-12-14T10:45:31.532Z,-3.3
2022-12-14T11:00:09.057Z,-2.6
2022-12-14T11:15:02.316Z,-2.3
2022-12-14T11:30:02.731Z,-2.2
2022-12-14T11:45:03.328Z,-2.4
2022-12-14T12:00:02.604Z,-1.9
2022-12-14T12:15:03.065Z,-1.9
2022-12-14T12:30:02.478Z,-2.2
2022-12-14T12:45:02.914Z,-2.2
2022-12-14T13:00:02.357Z,-2.3
2022-12-14T13:15:02.806Z,-2.3
2022-12-14T13:30:02.366Z,-2.3
2022-12-14T13:45:02.649Z,-2.4
2022-12-14T14:00:03.331Z,-2.5
2022-12-14T14:15:02.543Z,-2.6
2022-12-14T14:30:02.980Z,-2.7
2022-12-14T14:45:02.405Z,-2.9
2022-12-14T15:00:03.058Z,-3.3
2022-12-14T15:15:02.371Z,-3.6
2022-12-14T15:30:02.721Z,-4.1
2022-12-14T15:45:03.375Z,-4.5
2022-12-14T16:00:02.606Z,-5.0
2022-12-14T16:15:03.076Z,-5.3
2022-12-14T16:30:02.467Z,-5.7
2022-12-14T16:45:02.913Z,-5.9
2022-12-14T17:00:02.398Z,-6.1
2022-12-14T17:15:02.810Z,-6.4
2022-12-14T17:30:02.393Z,-6.7
2022-12-14T17:45:02.701Z,-6.9
2022-12-14T18:00:03.157Z,-7.3
2022-12-14T18:15:02.577Z,-7.5
2022-12-14T18:30:02.995Z,-7.6
2022-12-14T18:45:02.442Z,-7.9
2022-12-14T19:00:02.870Z,-8.1
2022-12-14T19:15:02.424Z,-8.2
2022-12-14T19:30:02.746Z,-8.4
2022-12-14T19:45:03.380Z,-8.6
2022-12-14T20:00:02.608Z,-8.8
2022-12-14T20:15:03.063Z,-9.0
2022-12-14T20:30:02.509Z,-9.1
2022-12-14T20:45:07.061Z,-9.2
2022-12-14T21:15:02.833Z,-9.5
2022-12-14T21:30:02.458Z,-9.5
2022-12-14T21:45:02.726Z,-9.6
2022-12-14T22:00:03.174Z,-9.7
2022-12-14T22:15:02.604Z,-9.8
2022-12-14T22:30:03.023Z,-9.8
2022-12-14T22:45:02.484Z,-9.9
2022-12-14T23:00:02.899Z,-9.8
2022-12-14T23:15:02.480Z,-9.7
2022-12-14T23:30:02.782Z,-9.7
2022-12-14T23:45:03.227Z,-9.6
